Time;durP1;ratioP1;P1;durP2;ratioP2;P2;SDS_P1;SDS_P2;PMS_P1;PMS_P2;Temp;Humidity;BMP_temperature;BMP_pressure;BME280_temperature;BME280_humidity;BME280_pressure;Samples;Min_cycle;Max_cycle;Signal;HPM_P1;HPM_P2
2023/01/18 00:01:25;;;;;;;12.25;8.32;;;1.60;70.10;;;;;;5044021;28;20420;-51
2023/01/18 00:03:53;;;;;;;13.73;8.73;;;1.70;70.10;;;;;;5051265;28;20040;-49
2023/01/18 00:06:23;;;;;;;12.65;8.82;;;1.60;70.00;;;;;;5051330;28;20532;-49
2023/01/18 00:08:55;;;;;;;14.05;8.88;;;1.60;70.00;;;;;;5052121;28;20099;-50
2023/01/18 00:11:23;;;;;;;15.93;8.75;;;1.60;70.10;;;;;;5047049;28;20038;-50
2023/01/18 00:13:51;;;;;;;14.57;8.15;;;1.60;70.10;;;;;;5050135;28;20051;-52
2023/01/18 00:16:22;;;;;;;14.00;8.70;;;1.60;70.10;;;;;;5051374;28;20041;-51
2023/01/18 00:18:56;;;;;;;12.43;7.93;;;1.50;70.00;;;;;;5047269;28;20117;-53
2023/01/18 00:21:26;;;;;;;9.80;6.68;;;1.50;70.00;;;;;;5049481;28;20095;-49
2023/01/18 00:23:54;;;;;;;12.13;7.15;;;1.50;70.00;;;;;;5050421;28;20045;-50
2023/01/18 00:26:21;;;;;;;11.10;7.32;;;1.50;70.10;;;;;;5050509;28;20049;-49
2023/01/18 00:28:48;;;;;;;10.82;6.90;;;1.50;70.00;;;;;;5046690;28;20133;-49
2023/01/18 00:31:20;;;;;;;10.25;7.28;;;1.50;70.00;;;;;;5050602;28;20059;-53
2023/01/18 00:33:50;;;;;;;12.38;8.18;;;1.50;70.00;;;;;;5050483;28;20131;-51
2023/01/18 00:36:19;;;;;;;8.70;6.57;;;1.50;70.00;;;;;;5044348;28;20041;-51
2023/01/18 00:38:54;;;;;;;11.52;6.95;;;1.50;70.00;;;;;;5045344;28;20121;-50
2023/01/18 00:41:25;;;;;;;11.95;6.57;;;1.40;70.00;;;;;;5050523;28;20045;-53
2023/01/18 00:43:59;;;;;;;10.40;6.75;;;1.40;70.00;;;;;;5045704;28;20091;-50
2023/01/18 00:46:26;;;;;;;12.73;6.72;;;1.40;70.00;;;;;;5050462;28;20045;-50
2023/01/18 00:48:56;;;;;;;12.00;6.72;;;1.40;70.70;;;;;;5049958;28;20460;-50
2023/01/18 00:51:24;;;;;;;12.48;7.28;;;1.40;70.10;;;;;;5048908;28;20079;-50
2023/01/18 00:53:53;;;;;;;11.38;7.57;;;1.40;70.10;;;;;;5045911;28;20072;-51
2023/01/18 00:56:21;;;;;;;12.32;8.27;;;1.30;70.10;;;;;;5049196;28;20086;-51
2023/01/18 00:58:49;;;;;;;13.30;7.55;;;1.30;70.10;;;;;;5031880;28;20043;-50
2023/01/18 01:01:21;;;;;;;10.23;7.13;;;1.30;70.10;;;;;;5051112;28;20056;-51
2023/01/18 01:06:43;;;;;;;12.57;8.07;;;1.30;70.10;;;;;;5045849;28;20048;-50
2023/01/18 01:09:18;;;;;;;11.32;7.25;;;1.30;70.00;;;;;;5045910;28;20053;-51
2023/01/18 01:26:17;;;;;;;11.13;6.70;;;1.20;69.70;;;;;;5040168;28;20060;-50
2023/01/18 01:28:49;;;;;;;8.70;6.30;;;1.20;70.00;;;;;;5048665;28;20057;-49
2023/01/18 01:31:17;;;;;;;9.48;6.97;;;1.20;69.90;;;;;;5049708;28;20033;-49
2023/01/18 01:33:45;;;;;;;10.45;6.88;;;1.20;70.00;;;;;;5045667;28;20041;-50
2023/01/18 01:36:17;;;;;;;9.50;6.60;;;1.20;70.10;;;;;;5047518;28;20116;-49
2023/01/18 01:38:55;;;;;;;9.38;5.93;;;1.20;70.10;;;;;;5042013;28;20086;-49
2023/01/18 01:41:29;;;;;;;12.63;6.68;;;1.20;70.00;;;;;;5050760;28;20124;-53
2023/01/18 01:44:23;;;;;;;10.50;6.68;;;1.20;70.00;;;;;;5042809;28;20065;-51
2023/01/18 01:47:00;;;;;;;10.90;6.35;;;1.20;70.00;;;;;;5042690;28;20409;-49
2023/01/18 01:49:34;;;;;;;8.00;6.00;;;1.20;70.00;;;;;;5049443;28;20043;-52
2023/01/18 01:52:06;;;;;;;9.55;6.78;;;1.20;70.00;;;;;;5048564;28;20041;-49
2023/01/18 01:54:38;;;;;;;9.25;6.47;;;1.20;69.90;;;;;;5042937;28;20036;-50
2023/01/18 01:57:25;;;;;;;12.13;7.38;;;1.10;69.90;;;;;;5049991;28;20461;-49
2023/01/18 01:59:59;;;;;;;9.85;6.65;;;1.10;69.80;;;;;;5042754;28;20041;-52
2023/01/18 02:02:30;;;;;;;8.10;5.53;;;1.20;70.60;;;;;;5048040;28;20761;-51
2023/01/18 02:05:01;;;;;;;12.00;7.20;;;1.10;69.90;;;;;;5045242;28;20079;-49
2023/01/18 02:07:33;;;;;;;12.52;6.53;;;1.10;69.90;;;;;;5049724;28;20045;-50
2023/01/18 02:10:05;;;;;;;11.57;7.05;;;1.10;70.00;;;;;;5049871;28;20052;-48
2023/01/18 02:12:37;;;;;;;11.93;7.00;;;1.10;70.00;;;;;;5036655;28;20065;-51
2023/01/18 02:15:05;;;;;;;12.10;6.90;;;1.10;70.00;;;;;;5049583;28;20455;-50
2023/01/18 02:17:59;;;;;;;10.05;6.90;;;1.10;70.00;;;;;;5048937;28;20068;-49
2023/01/18 02:20:55;;;;;;;11.25;6.63;;;1.10;69.80;;;;;;5049831;28;20032;-51
2023/01/18 02:23:21;;;;;;;10.85;6.53;;;1.10;69.90;;;;;;5047392;28;20535;-54
2023/01/18 02:25:50;;;;;;;10.57;6.40;;;1.10;69.90;;;;;;5042008;28;20040;-53
2023/01/18 02:28:25;;;;;;;10.98;6.25;;;1.10;69.90;;;;;;5048337;28;20048;-51
2023/01/18 02:31:21;;;;;;;10.80;7.10;;;1.10;70.00;;;;;;5038065;28;20129;-51
2023/01/18 02:34:02;;;;;;;9.27;6.70;;;1.10;69.90;;;;;;5044475;28;20045;-51
2023/01/18 02:36:34;;;;;;;8.95;6.18;;;1.10;69.90;;;;;;5048740;28;20090;-53
2023/01/18 02:39:22;;;;;;;9.35;6.85;;;1.10;70.00;;;;;;5046345;28;20047;-53
2023/01/18 02:47:32;;;;;;;12.60;7.78;;;1.10;70.00;;;;;;5048994;28;20115;-53
2023/01/18 02:49:59;;;;;;;15.20;8.63;;;1.10;70.10;;;;;;5045308;28;20128;-54
2023/01/18 02:52:49;;;;;;;11.20;8.50;;;1.10;70.10;;;;;;5048359;28;20041;-53
2023/01/18 02:55:37;;;;;;;12.43;8.50;;;1.10;70.10;;;;;;5049334;28;20037;-51
2023/01/18 02:58:14;;;;;;;11.27;7.75;;;1.10;70.10;;;;;;5042959;28;20061;-53
2023/01/18 03:00:45;;;;;;;12.10;8.07;;;1.10;70.10;;;;;;5043761;28;20500;-53
2023/01/18 03:03:20;;;;;;;11.65;8.48;;;1.10;70.10;;;;;;5048388;28;20037;-53
2023/01/18 03:05:52;;;;;;;11.00;8.00;;;1.10;70.10;;;;;;5049507;28;20501;-52
2023/01/18 03:08:25;;;;;;;14.73;8.65;;;1.10;70.00;;;;;;5038407;28;20038;-56
2023/01/18 03:11:00;;;;;;;11.85;8.98;;;1.10;70.00;;;;;;5049756;28;20486;-52
2023/01/18 03:13:42;;;;;;;13.07;8.57;;;1.10;69.90;;;;;;5045836;28;20044;-52
2023/01/18 03:16:17;;;;;;;13.25;8.73;;;1.10;69.80;;;;;;5048638;28;20041;-55
2023/01/18 03:19:01;;;;;;;15.00;9.30;;;1.00;69.80;;;;;;5044678;28;20045;-50
2023/01/18 03:21:46;;;;;;;14.98;9.00;;;1.00;69.80;;;;;;5043863;28;20045;-52
2023/01/18 03:24:15;;;;;;;14.75;8.70;;;1.00;69.80;;;;;;5047962;28;20047;-54
2023/01/18 03:26:47;;;;;;;13.52;9.13;;;1.00;69.80;;;;;;5040976;28;20049;-52
2023/01/18 03:35:10;;;;;;;12.27;9.45;;;1.00;69.60;;;;;;5045094;28;20044;-50
2023/01/18 03:37:42;;;;;;;10.40;8.32;;;1.00;69.70;;;;;;5047660;28;20036;-50
2023/01/18 03:40:15;;;;;;;14.73;9.40;;;0.90;69.60;;;;;;5048823;28;20510;-54
2023/01/18 03:42:58;;;;;;;16.15;9.45;;;0.90;69.70;;;;;;5046254;28;20045;-49
2023/01/18 03:45:40;;;;;;;10.98;8.75;;;0.90;69.60;;;;;;5046711;28;20072;-50
2023/01/18 03:48:10;;;;;;;15.43;9.93;;;0.90;69.60;;;;;;5049762;28;20041;-51
2023/01/18 03:50:52;;;;;;;12.30;8.85;;;0.90;69.70;;;;;;5052417;28;20064;-51
2023/01/18 03:53:42;;;;;;;13.73;9.35;;;0.90;69.70;;;;;;5050220;28;20032;-50
2023/01/18 03:56:39;;;;;;;14.10;9.48;;;0.90;69.50;;;;;;5049554;28;20476;-48
2023/01/18 03:59:07;;;;;;;13.73;8.85;;;0.90;69.40;;;;;;5045466;28;20041;-48
2023/01/18 04:01:36;;;;;;;15.05;8.93;;;0.90;69.70;;;;;;5050437;28;20056;-51
2023/01/18 04:04:02;;;;;;;15.00;9.43;;;0.90;69.70;;;;;;5043045;28;20056;-50
2023/01/18 04:06:31;;;;;;;17.42;10.40;;;0.90;69.90;;;;;;5050487;28;20468;-50
2023/01/18 04:09:01;;;;;;;15.90;10.32;;;0.90;70.10;;;;;;5051531;28;20136;-51
2023/01/18 04:11:27;;;;;;;16.38;10.13;;;0.90;70.20;;;;;;5051863;28;20083;-49
2023/01/18 04:13:59;;;;;;;12.88;9.52;;;0.90;70.30;;;;;;5048439;28;20039;-53
2023/01/18 04:16:25;;;;;;;14.20;10.80;;;0.90;70.30;;;;;;5052614;28;20056;-52
2023/01/18 04:18:55;;;;;;;18.27;10.55;;;0.90;70.20;;;;;;5038647;28;20044;-49
2023/01/18 04:21:24;;;;;;;18.50;11.05;;;1.00;70.20;;;;;;5045523;28;20183;-53
2023/01/18 04:23:50;;;;;;;15.98;9.85;;;1.00;70.10;;;;;;5046684;28;20475;-50
2023/01/18 04:26:18;;;;;;;16.17;10.50;;;1.00;70.00;;;;;;5026736;28;20115;-53
2023/01/18 04:28:46;;;;;;;13.85;8.75;;;1.00;70.00;;;;;;5026032;28;20596;-51
2023/01/18 04:31:13;;;;;;;16.00;9.82;;;1.00;70.00;;;;;;5032563;28;20726;-52
2023/01/18 04:33:39;;;;;;;14.05;10.20;;;1.00;70.00;;;;;;5046351;28;20532;-53
2023/01/18 04:36:09;;;;;;;14.98;10.35;;;1.00;70.00;;;;;;5040843;28;20472;-51
2023/01/18 04:38:37;;;;;;;21.52;12.07;;;0.80;70.00;;;;;;5040811;28;20525;-50
2023/01/18 04:41:06;;;;;;;16.02;11.50;;;1.00;70.30;;;;;;5045394;28;20049;-50
2023/01/18 04:43:33;;;;;;;11.63;9.20;;;1.00;70.50;;;;;;5046036;28;20037;-49
2023/01/18 04:46:05;;;;;;;16.05;10.65;;;1.00;70.70;;;;;;5052062;28;20048;-51
2023/01/18 04:48:32;;;;;;;16.23;11.23;;;1.00;70.90;;;;;;5050385;28;20043;-49
2023/01/18 04:50:58;;;;;;;14.32;10.02;;;1.00;71.00;;;;;;5044224;28;20528;-53
2023/01/18 04:53:25;;;;;;;19.13;11.57;;;1.00;71.20;;;;;;5049725;28;20047;-50
2023/01/18 04:55:52;;;;;;;17.08;10.43;;;1.10;71.30;;;;;;5050395;28;20095;-49
2023/01/18 04:58:21;;;;;;;21.27;10.65;;;1.10;71.40;;;;;;5046614;28;20515;-50
2023/01/18 05:00:50;;;;;;;13.70;8.77;;;1.10;71.40;;;;;;5049068;28;20449;-51
2023/01/18 05:03:17;;;;;;;18.35;10.82;;;1.10;71.50;;;;;;5050479;28;20290;-53
2023/01/18 05:05:45;;;;;;;16.50;11.48;;;1.20;71.60;;;;;;5051082;28;20072;-50
2023/01/18 05:08:14;;;;;;;18.75;11.25;;;1.20;71.70;;;;;;5030900;28;20115;-51
2023/01/18 05:10:43;;;;;;;19.85;11.88;;;1.20;71.70;;;;;;5049986;28;20131;-50
2023/01/18 05:13:10;;;;;;;18.25;11.38;;;1.20;71.80;;;;;;5049612;28;20112;-49
2023/01/18 05:15:37;;;;;;;19.17;12.35;;;1.30;71.90;;;;;;5051097;28;20041;-49
2023/01/18 05:18:05;;;;;;;19.67;12.02;;;1.30;72.00;;;;;;5045611;28;20108;-49
2023/01/18 05:20:31;;;;;;;19.98;12.00;;;1.30;72.00;;;;;;5045130;28;20037;-52
2023/01/18 05:22:58;;;;;;;19.27;12.63;;;1.30;72.10;;;;;;5067616;22;20056;-49
2023/01/18 05:25:28;;;;;;;18.13;12.20;;;1.30;72.00;;;;;;5048654;28;20052;-48
2023/01/18 05:27:56;;;;;;;18.42;12.20;;;1.40;72.00;;;;;;5049646;28;20043;-46
2023/01/18 05:30:23;;;;;;;18.83;11.38;;;1.40;72.10;;;;;;5050810;28;20432;-46
2023/01/18 05:32:57;;;;;;;19.17;13.15;;;1.40;72.10;;;;;;5038704;28;20060;-46
2023/01/18 05:35:24;;;;;;;17.70;11.23;;;1.40;72.10;;;;;;5046180;28;20043;-46
2023/01/18 05:37:51;;;;;;;17.40;11.82;;;1.50;72.20;;;;;;5044307;28;20544;-48
2023/01/18 05:40:19;;;;;;;21.55;12.32;;;1.50;72.20;;;;;;5044256;28;20064;-48
2023/01/18 05:42:46;;;;;;;15.75;10.75;;;1.50;72.20;;;;;;5047273;28;20060;-47
2023/01/18 05:45:15;;;;;;;19.20;12.95;;;1.50;72.30;;;;;;5048828;28;20041;-46
2023/01/18 05:47:42;;;;;;;16.48;11.88;;;1.50;72.30;;;;;;5043768;28;20851;-48
2023/01/18 05:50:09;;;;;;;13.45;10.50;;;1.50;72.30;;;;;;5047403;28;20044;-47
2023/01/18 05:52:36;;;;;;;19.98;12.88;;;1.50;72.30;;;;;;5031767;28;20037;-47
2023/01/18 05:55:04;;;;;;;18.77;12.63;;;1.60;72.40;;;;;;5050001;28;20037;-49
2023/01/18 05:57:31;;;;;;;17.85;12.20;;;1.60;72.40;;;;;;5021907;28;20133;-48
2023/01/18 05:59:57;;;;;;;20.38;11.80;;;1.60;72.40;;;;;;5043518;28;20118;-47
2023/01/18 06:02:24;;;;;;;16.25;11.23;;;1.60;72.40;;;;;;5047056;28;20044;-48
2023/01/18 06:04:51;;;;;;;17.98;12.23;;;1.60;72.50;;;;;;5045483;28;20045;-48
2023/01/18 06:07:17;;;;;;;24.02;13.00;;;1.60;72.70;;;;;;5048327;28;20032;-47
2023/01/18 06:09:44;;;;;;;18.65;12.00;;;1.60;72.70;;;;;;5048484;28;20048;-48
2023/01/18 06:12:11;;;;;;;17.98;11.95;;;1.70;72.70;;;;;;5046390;28;20441;-51
2023/01/18 06:14:37;;;;;;;23.05;12.60;;;1.70;72.80;;;;;;5046031;28;20036;-51
2023/01/18 06:17:05;;;;;;;17.55;12.38;;;1.70;72.80;;;;;;5027355;28;20036;-47
2023/01/18 06:19:32;;;;;;;19.52;12.68;;;1.70;72.80;;;;;;5048049;28;20060;-47
2023/01/18 06:21:58;;;;;;;17.92;12.10;;;1.70;72.80;;;;;;5037044;28;20099;-51
2023/01/18 06:24:25;;;;;;;21.75;13.45;;;1.80;72.70;;;;;;5047915;28;20037;-48
2023/01/18 06:26:52;;;;;;;20.30;13.32;;;1.80;72.70;;;;;;5049334;28;20037;-51
2023/01/18 06:29:18;;;;;;;22.63;13.88;;;1.90;72.80;;;;;;5045068;28;20057;-47
2023/01/18 06:31:45;;;;;;;20.65;12.23;;;1.80;72.70;;;;;;5046075;28;20051;-47
2023/01/18 06:34:14;;;;;;;17.65;12.25;;;1.80;72.70;;;;;;5044798;28;20041;-47
2023/01/18 06:36:40;;;;;;;20.27;12.73;;;1.80;72.70;;;;;;5024846;28;20052;-48
2023/01/18 06:39:07;;;;;;;20.25;11.80;;;1.90;72.70;;;;;;5047615;28;20076;-48
2023/01/18 06:41:34;;;;;;;24.73;13.95;;;1.90;72.70;;;;;;5045508;28;20056;-46
2023/01/18 06:44:03;;;;;;;20.88;13.40;;;1.90;72.60;;;;;;5038992;28;20152;-51
2023/01/18 06:46:29;;;;;;;21.30;13.65;;;1.90;72.60;;;;;;5047246;28;20049;-49
2023/01/18 06:48:56;;;;;;;20.25;12.90;;;1.90;72.50;;;;;;5038810;28;20041;-51
2023/01/18 06:51:23;;;;;;;16.17;13.18;;;1.90;72.40;;;;;;5038283;28;20124;-51
2023/01/18 06:53:50;;;;;;;19.50;12.75;;;1.90;72.40;;;;;;5041620;28;20047;-49
2023/01/18 06:56:16;;;;;;;19.98;13.07;;;1.90;72.40;;;;;;5048632;28;20055;-46
2023/01/18 06:58:43;;;;;;;18.58;12.65;;;1.90;72.40;;;;;;5044459;28;20496;-48
2023/01/18 07:01:10;;;;;;;19.27;13.80;;;1.90;72.40;;;;;;5046627;28;20645;-48
2023/01/18 07:03:37;;;;;;;23.20;14.20;;;1.90;72.40;;;;;;5048358;28;20037;-49
2023/01/18 07:06:06;;;;;;;20.48;12.48;;;1.90;72.40;;;;;;5044590;28;20071;-47
2023/01/18 07:08:34;;;;;;;16.65;13.10;;;1.90;72.40;;;;;;5046251;28;20786;-48
2023/01/18 07:11:06;;;;;;;25.52;14.23;;;1.90;72.40;;;;;;5045618;28;20047;-46
2023/01/18 07:13:33;;;;;;;23.30;14.32;;;1.90;72.40;;;;;;5041179;28;20045;-49
2023/01/18 07:16:02;;;;;;;20.70;13.27;;;1.90;72.40;;;;;;5048866;28;20029;-47
2023/01/18 07:18:29;;;;;;;17.33;13.20;;;1.90;72.40;;;;;;5028811;28;20045;-47
2023/01/18 07:21:01;;;;;;;17.55;12.23;;;1.90;72.50;;;;;;5051317;28;20052;-47
2023/01/18 07:23:29;;;;;;;19.20;13.63;;;1.90;72.50;;;;;;5051748;28;20504;-48
2023/01/18 07:26:04;;;;;;;15.98;13.27;;;1.90;72.50;;;;;;5048700;28;20123;-50
2023/01/18 07:28:34;;;;;;;18.55;13.38;;;1.90;72.50;;;;;;5051812;28;20488;-47
2023/01/18 07:31:02;;;;;;;21.60;14.05;;;1.90;72.50;;;;;;5045866;28;20378;-50
2023/01/18 07:33:30;;;;;;;21.55;14.32;;;1.90;72.50;;;;;;5046499;28;20212;-49
2023/01/18 07:35:57;;;;;;;24.75;13.90;;;1.90;72.50;;;;;;5045489;28;20108;-48
2023/01/18 07:38:25;;;;;;;22.10;13.55;;;1.90;72.50;;;;;;5052261;28;20124;-45
2023/01/18 07:41:01;;;;;;;18.15;13.77;;;1.90;72.50;;;;;;5048458;28;20072;-47
2023/01/18 07:43:32;;;;;;;18.42;13.27;;;1.90;72.50;;;;;;5046331;28;20075;-48
2023/01/18 07:46:00;;;;;;;18.83;12.60;;;1.90;72.50;;;;;;5047553;28;21875;-48
2023/01/18 07:48:27;;;;;;;19.48;13.82;;;1.90;72.50;;;;;;5048376;28;20718;-51
2023/01/18 07:51:03;;;;;;;19.10;12.93;;;1.90;72.50;;;;;;5038808;28;20055;-47
2023/01/18 07:53:34;;;;;;;17.77;13.93;;;1.90;72.70;;;;;;5046651;28;20060;-46
2023/01/18 07:56:04;;;;;;;19.55;13.25;;;1.90;72.60;;;;;;5051702;28;20051;-50
2023/01/18 07:58:35;;;;;;;22.02;14.20;;;1.90;72.60;;;;;;5051192;28;20412;-48
2023/01/18 08:01:08;;;;;;;22.83;13.43;;;1.90;72.70;;;;;;5047485;28;20119;-52
2023/01/18 08:03:36;;;;;;;21.63;14.13;;;1.90;72.70;;;;;;5052376;28;20045;-49
2023/01/18 08:06:04;;;;;;;20.38;12.70;;;1.90;72.70;;;;;;5051450;28;20048;-49
2023/01/18 08:08:32;;;;;;;21.80;13.23;;;1.90;72.70;;;;;;5038904;28;20072;-46
2023/01/18 08:11:00;;;;;;;20.42;12.88;;;1.90;72.80;;;;;;5051656;28;20049;-48
2023/01/18 08:13:27;;;;;;;21.00;12.65;;;2.00;72.90;;;;;;5045390;28;20033;-46
2023/01/18 08:15:55;;;;;;;19.27;13.32;;;2.00;72.90;;;;;;5050039;28;20048;-48
2023/01/18 08:18:22;;;;;;;22.88;12.15;;;2.00;72.90;;;;;;5048917;28;20033;-51
2023/01/18 08:20:49;;;;;;;23.33;14.95;;;2.00;72.90;;;;;;5044206;28;20095;-48
2023/01/18 08:23:16;;;;;;;15.75;12.60;;;2.00;72.90;;;;;;5050909;28;20601;-51
2023/01/18 08:25:46;;;;;;;22.70;14.10;;;2.10;73.00;;;;;;5029223;28;20054;-49
2023/01/18 08:28:13;;;;;;;20.63;13.65;;;2.10;73.00;;;;;;5048205;28;20045;-50
2023/01/18 08:30:42;;;;;;;23.00;15.02;;;2.10;73.00;;;;;;5047673;28;20053;-50
2023/01/18 08:33:09;;;;;;;22.05;13.70;;;2.10;73.00;;;;;;5049999;28;20310;-52
2023/01/18 08:35:44;;;;;;;19.85;12.88;;;2.10;73.00;;;;;;5045631;28;20037;-48
2023/01/18 08:38:14;;;;;;;18.70;13.50;;;2.20;73.00;;;;;;5025285;28;20060;-51
2023/01/18 08:40:41;;;;;;;18.40;12.75;;;2.20;73.00;;;;;;5043641;28;20112;-51
2023/01/18 08:43:10;;;;;;;20.63;14.40;;;2.20;73.00;;;;;;5043289;28;20099;-51
2023/01/18 08:45:37;;;;;;;21.02;14.27;;;2.20;73.00;;;;;;5047140;28;20116;-51
2023/01/18 08:48:09;;;;;;;21.05;13.52;;;2.20;73.00;;;;;;5050630;28;20090;-47
2023/01/18 08:50:38;;;;;;;21.25;14.32;;;2.30;73.10;;;;;;5051338;28;20041;-49
2023/01/18 08:53:05;;;;;;;19.77;13.60;;;2.30;73.00;;;;;;5049707;28;20045;-48
2023/01/18 08:55:35;;;;;;;23.67;15.10;;;2.30;73.00;;;;;;5047028;28;20120;-52
2023/01/18 08:58:02;;;;;;;21.17;12.82;;;2.30;73.00;;;;;;5050814;28;20045;-48
2023/01/18 09:00:29;;;;;;;18.73;12.85;;;2.40;73.00;;;;;;5049932;28;20040;-48
2023/01/18 09:02:56;;;;;;;16.45;12.45;;;2.40;73.00;;;;;;5050151;28;20493;-49
2023/01/18 09:05:25;;;;;;;18.98;12.98;;;2.60;73.10;;;;;;5046470;28;20132;-48
2023/01/18 09:07:54;;;;;;;22.33;14.77;;;2.50;72.90;;;;;;5047059;28;20045;-47
2023/01/18 09:10:21;;;;;;;20.48;13.35;;;2.50;72.90;;;;;;5049954;28;20053;-51
2023/01/18 09:12:48;;;;;;;20.00;13.98;;;2.50;72.80;;;;;;5026418;28;20044;-49
2023/01/18 09:15:17;;;;;;;20.13;13.68;;;2.50;72.80;;;;;;5050431;28;20060;-51
2023/01/18 09:17:44;;;;;;;21.45;14.65;;;2.60;72.90;;;;;;5050529;28;20045;-51
2023/01/18 09:20:11;;;;;;;22.98;14.55;;;2.60;72.90;;;;;;5038153;28;20045;-47
2023/01/18 09:22:38;;;;;;;20.63;13.70;;;2.60;72.80;;;;;;5029907;28;20045;-50
2023/01/18 09:25:07;;;;;;;17.77;12.95;;;2.70;72.80;;;;;;5047120;28;20515;-50
2023/01/18 09:27:34;;;;;;;24.27;14.20;;;2.70;72.80;;;;;;5050016;28;20554;-52
2023/01/18 09:30:01;;;;;;;19.75;14.38;;;2.70;72.80;;;;;;5049660;28;20041;-50
2023/01/18 09:32:28;;;;;;;20.52;14.52;;;2.70;72.70;;;;;;5046445;28;20055;-49
2023/01/18 09:34:54;;;;;;;19.77;14.25;;;2.70;72.70;;;;;;5049244;28;20117;-48
2023/01/18 09:37:21;;;;;;;18.27;13.15;;;2.80;72.70;;;;;;5049509;28;20041;-49
2023/01/18 09:39:48;;;;;;;21.58;13.90;;;2.80;72.60;;;;;;5026363;28;20046;-51
2023/01/18 09:42:26;;;;;;;19.83;13.38;;;2.80;72.60;;;;;;5047447;28;20524;-52
2023/01/18 09:44:59;;;;;;;15.35;11.65;;;2.80;72.60;;;;;;5049237;28;20055;-50
2023/01/18 09:47:27;;;;;;;20.67;13.80;;;2.90;72.50;;;;;;5049801;28;20041;-51
2023/01/18 09:50:04;;;;;;;18.88;12.38;;;2.90;72.50;;;;;;5031728;28;20686;-49
2023/01/18 09:52:41;;;;;;;19.10;13.02;;;2.90;72.50;;;;;;5045404;28;20051;-50
2023/01/18 09:55:26;;;;;;;20.35;12.90;;;2.90;72.50;;;;;;5049321;28;20048;-49
2023/01/18 09:58:11;;;;;;;22.23;13.18;;;2.90;72.40;;;;;;5050004;28;20412;-49
2023/01/18 10:00:45;;;;;;;17.20;11.93;;;3.00;72.50;;;;;;5027579;28;20565;-52
2023/01/18 10:03:23;;;;;;;19.73;12.73;;;3.00;72.50;;;;;;5042384;28;20079;-51
2023/01/18 10:06:07;;;;;;;21.05;13.40;;;3.00;72.50;;;;;;5049214;28;20124;-51
2023/01/18 10:08:57;;;;;;;23.40;13.73;;;3.00;72.50;;;;;;5048194;28;20505;-48
2023/01/18 10:11:46;;;;;;;19.38;12.35;;;3.10;72.60;;;;;;5033172;28;20056;-51
2023/01/18 10:14:44;;;;;;;16.55;12.07;;;3.10;72.50;;;;;;5038924;28;20466;-49
2023/01/18 10:17:20;;;;;;;19.02;13.43;;;3.10;72.50;;;;;;5049196;28;20076;-52
2023/01/18 10:19:47;;;;;;;18.48;13.23;;;3.20;72.60;;;;;;5038879;28;20055;-51
2023/01/18 10:22:39;;;;;;;20.08;13.10;;;3.20;72.60;;;;;;5038464;28;20041;-49
2023/01/18 10:25:17;;;;;;;18.30;13.18;;;3.30;72.70;;;;;;5047930;28;20072;-50
2023/01/18 10:28:23;;;;;;;19.15;12.32;;;3.30;72.70;;;;;;5049060;28;20048;-52
2023/01/18 10:31:08;;;;;;;21.15;12.38;;;3.30;72.60;;;;;;5046365;28;20231;-51
2023/01/18 10:33:39;;;;;;;20.75;11.90;;;3.40;72.60;;;;;;5053299;28;20047;-52
2023/01/18 10:36:19;;;;;;;16.77;12.10;;;3.40;72.60;;;;;;5048647;28;20072;-53
2023/01/18 10:38:48;;;;;;;23.85;13.70;;;3.40;72.50;;;;;;5035186;28;20714;-49
2023/01/18 10:41:24;;;;;;;23.23;13.80;;;3.50;72.60;;;;;;5043023;28;20045;-48
2023/01/18 10:43:54;;;;;;;17.63;13.43;;;3.50;73.20;;;;;;5045053;28;20052;-49
2023/01/18 10:46:20;;;;;;;17.25;12.07;;;3.60;72.60;;;;;;5045517;28;20041;-52
2023/01/18 10:48:52;;;;;;;20.95;13.15;;;3.60;72.50;;;;;;5030933;28;20042;-50
2023/01/18 10:51:46;;;;;;;20.02;11.90;;;3.50;72.40;;;;;;5045749;28;20041;-51
2023/01/18 10:54:22;;;;;;;24.13;11.73;;;3.70;72.40;;;;;;5046431;28;20076;-51
2023/01/18 10:56:59;;;;;;;21.15;12.60;;;3.70;72.30;;;;;;5045324;28;20037;-51
2023/01/18 10:59:36;;;;;;;19.92;12.77;;;3.70;72.30;;;;;;5050532;28;20100;-50
2023/01/18 11:02:03;;;;;;;19.38;12.32;;;3.80;72.40;;;;;;5052032;28;20087;-52
2023/01/18 11:04:32;;;;;;;17.45;12.35;;;3.80;72.40;;;;;;5052104;28;20040;-48
2023/01/18 11:07:01;;;;;;;17.88;12.50;;;3.80;72.30;;;;;;5044198;28;20049;-48
2023/01/18 11:09:47;;;;;;;19.70;12.02;;;3.90;72.30;;;;;;5052341;28;20746;-49
2023/01/18 11:12:32;;;;;;;16.83;11.50;;;3.90;72.10;;;;;;5052078;28;20051;-49
2023/01/18 11:15:14;;;;;;;19.05;11.30;;;4.00;72.00;;;;;;5044990;28;20128;-48
2023/01/18 11:17:55;;;;;;;17.38;12.05;;;4.00;71.80;;;;;;5048558;28;20045;-50
2023/01/18 11:20:47;;;;;;;15.10;10.73;;;4.00;71.90;;;;;;5045070;28;20048;-48
2023/01/18 11:23:34;;;;;;;16.08;10.75;;;4.10;72.00;;;;;;5051415;28;20037;-50
2023/01/18 11:26:11;;;;;;;15.85;10.88;;;4.10;71.90;;;;;;5045354;28;20517;-50
2023/01/18 11:28:56;;;;;;;13.43;10.23;;;4.20;72.00;;;;;;5053242;28;20084;-49
2023/01/18 11:31:24;;;;;;;19.77;11.00;;;4.20;71.90;;;;;;5055080;28;20051;-48
2023/01/18 11:33:51;;;;;;;18.27;10.75;;;4.20;71.90;;;;;;5050855;28;20053;-50
2023/01/18 11:36:20;;;;;;;15.93;11.25;;;4.30;71.80;;;;;;5045694;28;20041;-49
2023/01/18 11:38:47;;;;;;;14.60;10.00;;;4.30;71.70;;;;;;5047785;28;20047;-49
2023/01/18 11:41:22;;;;;;;14.90;10.75;;;4.30;71.70;;;;;;5053128;28;20124;-48
2023/01/18 11:44:11;;;;;;;17.83;10.45;;;4.40;71.50;;;;;;5049742;28;20614;-49
2023/01/18 11:46:52;;;;;;;17.30;11.07;;;4.40;71.40;;;;;;5047782;28;20505;-50
2023/01/18 11:49:41;;;;;;;15.30;10.13;;;4.50;72.10;;;;;;5044331;28;20124;-51
2023/01/18 11:52:45;;;;;;;14.77;10.40;;;4.50;71.10;;;;;;5046935;28;20120;-48
2023/01/18 11:55:32;;;;;;;15.65;10.45;;;4.60;71.10;;;;;;5046938;28;20051;-51
2023/01/18 11:58:04;;;;;;;13.25;9.38;;;4.60;71.00;;;;;;5051679;28;20047;-49
2023/01/18 12:00:52;;;;;;;11.43;8.90;;;4.70;71.30;;;;;;5052028;28;20041;-49
2023/01/18 12:03:55;;;;;;;13.27;10.18;;;4.70;70.90;;;;;;5042687;28;20133;-52
2023/01/18 12:06:26;;;;;;;;;;;4.80;71.10;;;;;;5030668;28;20063;-50
2023/01/18 12:09:13;;;;;;;13.52;9.13;;;4.90;71.00;;;;;;5048949;28;20010;-49
2023/01/18 12:12:00;;;;;;;13.77;9.55;;;4.90;70.90;;;;;;5047489;28;20120;-50
2023/01/18 12:14:52;;;;;;;13.68;10.52;;;4.90;70.90;;;;;;5046843;28;20068;-50
2023/01/18 12:17:24;;;;;;;13.30;9.80;;;4.90;71.00;;;;;;5052512;28;20068;-53
2023/01/18 12:20:15;;;;;;;11.55;9.63;;;5.00;71.10;;;;;;5051422;28;20811;-52
2023/01/18 12:23:10;;;;;;;14.57;9.10;;;5.00;70.90;;;;;;5048226;28;20045;-48
2023/01/18 12:25:43;;;;;;;13.70;9.38;;;5.10;70.80;;;;;;5046899;28;20037;-48
2023/01/18 12:28:37;;;;;;;15.80;9.55;;;5.10;71.10;;;;;;5050657;28;20044;-53
2023/01/18 12:31:31;;;;;;;13.18;9.32;;;5.10;70.90;;;;;;5041459;28;20045;-49
2023/01/18 12:34:11;;;;;;;12.35;9.07;;;5.20;70.90;;;;;;5032831;28;20111;-51
2023/01/18 12:36:54;;;;;;;14.38;8.45;;;5.20;70.80;;;;;;5051702;28;20045;-49
2023/01/18 12:39:44;;;;;;;11.25;8.40;;;5.30;70.60;;;;;;5038105;28;20087;-50
2023/01/18 12:42:43;;;;;;;10.60;8.15;;;5.30;70.60;;;;;;5050370;28;20086;-48
2023/01/18 12:45:23;;;;;;;11.48;8.25;;;5.40;70.30;;;;;;5051036;28;20049;-48
2023/01/18 12:47:53;;;;;;;11.82;8.05;;;5.40;70.00;;;;;;5050742;28;20037;-51
2023/01/18 12:50:26;;;;;;;10.65;8.18;;;5.40;70.10;;;;;;5043948;28;20045;-51
2023/01/18 12:52:59;;;;;;;11.93;8.43;;;5.50;70.10;;;;;;5051056;28;20121;-51
2023/01/18 12:55:30;;;;;;;11.82;8.57;;;5.50;70.10;;;;;;5043143;28;20058;-53
2023/01/18 12:57:59;;;;;;;11.07;9.03;;;5.50;70.00;;;;;;5048461;28;20037;-52
2023/01/18 13:00:32;;;;;;;12.60;8.65;;;5.50;69.90;;;;;;5046362;28;20037;-49
2023/01/18 13:03:03;;;;;;;11.00;7.82;;;5.60;69.90;;;;;;5048461;28;20041;-52
2023/01/18 13:05:44;;;;;;;12.20;8.90;;;5.60;69.80;;;;;;5049777;28;20036;-52
2023/01/18 13:08:39;;;;;;;12.47;8.13;;;5.60;69.50;;;;;;5045116;28;20413;-51
2023/01/18 13:11:29;;;;;;;16.98;8.45;;;5.60;69.10;;;;;;5049387;28;20562;-49
2023/01/18 13:14:16;;;;;;;11.18;8.18;;;5.60;69.30;;;;;;5049512;28;20124;-51
2023/01/18 13:17:08;;;;;;;10.10;7.13;;;5.70;69.00;;;;;;5041393;28;20041;-52
2023/01/18 13:19:43;;;;;;;12.18;7.78;;;5.70;69.10;;;;;;5050094;28;20079;-48
2023/01/18 13:22:10;;;;;;;9.70;7.28;;;5.70;69.00;;;;;;5032499;28;20037;-48
2023/01/18 13:25:07;;;;;;;10.38;7.63;;;5.70;69.20;;;;;;5048274;28;20437;-49
2023/01/18 13:27:36;;;;;;;9.77;7.38;;;5.70;68.80;;;;;;5045537;28;20087;-51
2023/01/18 13:30:14;;;;;;;11.52;7.90;;;5.80;69.10;;;;;;5049992;28;20094;-48
2023/01/18 13:32:43;;;;;;;11.27;7.70;;;5.80;68.80;;;;;;5055529;28;20036;-50
2023/01/18 13:35:18;;;;;;;11.90;7.60;;;5.80;68.70;;;;;;5048981;28;20037;-49
2023/01/18 13:37:53;;;;;;;11.45;7.70;;;5.90;68.70;;;;;;5047816;28;20408;-52
2023/01/18 13:41:02;;;;;;;12.20;7.78;;;5.90;68.60;;;;;;5050085;28;20041;-50